Time;durP1;ratioP1;P1;durP2;ratioP2;P2;SDS_P1;SDS_P2;PMS_P1;PMS_P2;Temp;Humidity;BMP_temperature;BMP_pressure;BME280_temperature;BME280_humidity;BME280_pressure;Samples;Min_cycle;Max_cycle;Signal;HPM_P1;HPM_P2
2021/10/17 00:02:19;;;;;;;13.37;5.83;;;;;;;8.44;76.49;102087.28;5113750;28;20016;-35
2021/10/17 00:04:45;;;;;;;13.67;6.57;;;;;;;8.50;76.00;102088.38;5113126;28;20020;-35
2021/10/17 00:07:10;;;;;;;14.43;5.67;;;;;;;8.54;77.92;102086.13;5114045;28;20023;-35
2021/10/17 00:09:37;;;;;;;15.13;5.77;;;;;;;8.42;77.53;102070.44;5113729;28;20506;-35
2021/10/17 00:12:05;;;;;;;15.23;5.85;;;;;;;8.44;77.33;102095.38;5113981;28;20253;-35
2021/10/17 00:14:31;;;;;;;14.45;5.55;;;;;;;8.47;77.41;102102.22;5113221;28;20480;-35
2021/10/17 00:16:56;;;;;;;15.17;6.07;;;;;;;8.43;77.67;102099.06;5113519;28;20019;-35
2021/10/17 00:19:21;;;;;;;11.57;5.00;;;;;;;8.45;77.79;102096.19;5113332;28;20440;-35
2021/10/17 00:21:47;;;;;;;14.07;5.93;;;;;;;8.44;77.68;102092.66;5113614;28;20034;-35
2021/10/17 00:24:12;;;;;;;16.63;4.97;;;;;;;8.46;78.13;102096.00;5113005;28;20032;-36
2021/10/17 00:26:39;;;;;;;14.40;5.67;;;;;;;8.45;77.50;102102.41;5113613;28;20115;-35
2021/10/17 00:29:04;;;;;;;15.57;5.55;;;;;;;8.47;78.98;102099.53;5112945;28;20472;-35
2021/10/17 00:31:30;;;;;;;14.73;4.95;;;;;;;8.47;78.08;102094.97;5113269;28;20026;-36
2021/10/17 00:33:55;;;;;;;14.03;5.90;;;;;;;8.46;77.12;102095.16;5113038;28;20026;-35
2021/10/17 00:36:21;;;;;;;11.03;5.73;;;;;;;8.42;77.76;102097.41;5113972;28;20111;-36
2021/10/17 00:38:46;;;;;;;17.60;5.22;;;;;;;8.45;77.79;102090.81;5113396;28;20359;-36
2021/10/17 00:41:12;;;;;;;14.77;5.60;;;;;;;8.40;79.16;102085.97;5113263;28;20074;-35
2021/10/17 00:43:37;;;;;;;14.35;5.30;;;;;;;8.38;77.82;102084.47;5112969;28;20047;-35
2021/10/17 00:46:02;;;;;;;13.50;5.17;;;;;;;8.41;78.52;102090.34;5113492;28;20019;-35
2021/10/17 00:48:28;;;;;;;10.73;5.67;;;;;;;8.30;78.11;102071.06;5114107;28;20067;-35
2021/10/17 00:50:53;;;;;;;11.57;5.43;;;;;;;8.37;80.41;102086.34;5117007;28;20081;-36
2021/10/17 00:53:20;;;;;;;13.27;5.45;;;;;;;8.39;79.94;102089.66;5116629;28;20489;-36
2021/10/17 00:55:47;;;;;;;10.70;4.90;;;;;;;8.39;78.31;102094.22;5116492;28;20051;-35
2021/10/17 00:58:16;;;;;;;11.35;4.70;;;;;;;8.39;79.36;102081.56;5117223;28;20019;-35
2021/10/17 01:00:41;;;;;;;13.05;4.88;;;;;;;8.26;78.92;102070.59;5116657;28;20039;-35
2021/10/17 01:03:07;;;;;;;14.67;5.30;;;;;;;8.25;78.44;102071.63;5116742;28;20344;-35
2021/10/17 01:05:32;;;;;;;14.27;5.70;;;;;;;8.34;78.45;102083.97;5116697;28;20352;-35
2021/10/17 01:07:57;;;;;;;12.13;5.40;;;;;;;8.33;77.96;102078.78;5116879;28;20024;-36
2021/10/17 01:10:23;;;;;;;15.47;5.80;;;;;;;8.27;78.64;102075.81;5116465;28;20027;-36
2021/10/17 01:12:48;;;;;;;10.80;5.30;;;;;;;8.27;78.20;102073.09;5116754;28;20027;-36
2021/10/17 01:15:13;;;;;;;13.60;5.27;;;;;;;8.29;78.63;102078.28;5116780;28;20055;-35
2021/10/17 01:17:39;;;;;;;10.33;4.93;;;;;;;8.25;77.82;102080.56;5116080;28;20072;-36
2021/10/17 01:20:09;;;;;;;13.60;5.37;;;;;;;8.19;78.10;102053.50;5098793;28;20035;-35
2021/10/17 01:22:35;;;;;;;8.32;4.55;;;;;;;8.24;79.96;102062.69;5116854;28;20101;-36
2021/10/17 01:25:00;;;;;;;10.88;4.95;;;;;;;8.16;80.76;102054.72;5115897;28;20043;-35
2021/10/17 01:27:25;;;;;;;12.57;5.07;;;;;;;8.15;79.20;102057.56;5115997;28;20176;-36
2021/10/17 01:29:51;;;;;;;13.90;5.93;;;;;;;8.26;79.40;102073.31;5116627;28;20272;-36
2021/10/17 01:32:17;;;;;;;16.20;5.30;;;;;;;8.29;79.35;102064.81;5132005;27;20055;-35
2021/10/17 01:34:42;;;;;;;11.07;5.90;;;;;;;8.22;78.90;102067.44;5116020;28;20077;-36
2021/10/17 01:37:08;;;;;;;15.27;6.10;;;;;;;8.20;79.39;102065.97;5098345;28;20031;-35
2021/10/17 01:39:33;;;;;;;13.10;5.90;;;;;;;8.17;78.97;102060.94;5115980;28;20015;-35
2021/10/17 01:41:59;;;;;;;13.20;5.77;;;;;;;8.12;78.96;102064.19;5115652;28;20257;-36
2021/10/17 01:44:33;;;;;;;14.43;6.43;;;;;;;8.12;80.35;102066.88;5115879;28;20028;-35
2021/10/17 01:46:59;;;;;;;11.50;5.00;;;;;;;8.15;81.45;102069.22;5116171;28;20019;-36
2021/10/17 01:49:25;;;;;;;13.63;5.85;;;;;;;8.15;81.37;102058.44;5115707;28;20106;-35
2021/10/17 01:51:50;;;;;;;13.17;5.90;;;;;;;8.15;81.60;102052.19;5116059;28;20435;-36
2021/10/17 01:54:15;;;;;;;12.65;5.60;;;;;;;8.04;80.53;102034.63;5115617;28;20261;-35
2021/10/17 01:56:41;;;;;;;16.43;6.27;;;;;;;8.07;80.31;102042.34;5116361;28;20057;-35
2021/10/17 01:59:07;;;;;;;13.50;6.00;;;;;;;8.04;79.92;102050.78;5115557;28;20019;-35
2021/10/17 02:01:32;;;;;;;18.23;6.18;;;;;;;8.02;80.08;102055.53;5115033;28;20390;-35
2021/10/17 02:04:02;;;;;;;15.97;5.87;;;;;;;7.93;79.60;102035.09;5097792;28;20164;-35
2021/10/17 02:06:28;;;;;;;9.98;5.93;;;;;;;7.97;80.57;102045.31;5115349;28;20085;-35
2021/10/17 02:08:54;;;;;;;12.82;6.38;;;;;;;7.96;81.67;102038.25;5116185;28;20434;-36
2021/10/17 02:11:20;;;;;;;12.18;6.25;;;;;;;7.97;81.50;102039.94;5115071;28;20475;-41
2021/10/17 02:13:45;;;;;;;11.83;5.83;;;;;;;7.94;82.10;102040.28;5115181;28;20068;-35
2021/10/17 02:16:11;;;;;;;11.93;6.47;;;;;;;7.85;81.45;102037.84;5115908;28;20098;-35
2021/10/17 02:18:36;;;;;;;13.13;6.15;;;;;;;7.83;81.38;102032.66;5115079;28;20072;-35
2021/10/17 02:21:02;;;;;;;22.10;7.70;;;;;;;7.84;81.60;102046.97;5114805;28;20406;-35
2021/10/17 02:23:28;;;;;;;17.58;6.05;;;;;;;7.79;82.32;102047.50;5115590;28;20038;-35
2021/10/17 02:25:54;;;;;;;11.82;6.38;;;;;;;7.68;82.65;102039.88;5115395;28;20019;-36
2021/10/17 02:28:19;;;;;;;14.73;7.63;;;;;;;7.69;82.90;102042.38;5115107;28;20470;-36
2021/10/17 02:30:44;;;;;;;14.50;6.50;;;;;;;7.69;83.00;102037.00;5115037;28;20132;-35
2021/10/17 02:33:11;;;;;;;16.70;7.60;;;;;;;7.66;83.06;102039.22;5115588;28;20063;-36
2021/10/17 02:35:37;;;;;;;19.45;7.15;;;;;;;7.70;83.88;102045.91;5115402;28;20639;-35
2021/10/17 02:38:02;;;;;;;13.43;6.50;;;;;;;7.59;84.23;102019.44;5114832;28;20078;-36
2021/10/17 02:40:28;;;;;;;13.18;6.13;;;;;;;7.63;83.79;102037.75;5115051;28;20152;-35
2021/10/17 02:42:53;;;;;;;15.17;7.87;;;;;;;7.59;84.00;102039.13;5115158;28;20023;-35
2021/10/17 02:45:18;;;;;;;16.47;7.27;;;;;;;7.60;83.15;102042.66;5114757;28;20020;-35
2021/10/17 02:47:44;;;;;;;12.93;7.13;;;;;;;7.52;82.79;102050.81;5114980;28;20459;-35
2021/10/17 02:50:09;;;;;;;14.63;7.00;;;;;;;7.47;83.05;102030.66;5114575;28;20370;-35
2021/10/17 02:52:35;;;;;;;14.83;7.10;;;;;;;7.40;83.66;102021.63;5114825;28;20249;-35
2021/10/17 02:55:00;;;;;;;13.90;6.73;;;;;;;7.48;82.81;102036.88;5114659;28;20261;-35
2021/10/17 02:57:26;;;;;;;15.13;7.23;;;;;;;7.55;83.03;102037.81;5114007;28;20027;-35
2021/10/17 02:59:51;;;;;;;14.95;7.07;;;;;;;7.57;82.93;102041.16;5114306;28;20028;-35
2021/10/17 03:02:17;;;;;;;16.27;7.50;;;;;;;7.38;82.71;102012.91;5114746;28;20470;-35
2021/10/17 03:04:42;;;;;;;19.93;7.33;;;;;;;7.46;82.80;102030.81;5114601;28;20344;-35
2021/10/17 03:07:08;;;;;;;15.13;7.40;;;;;;;7.36;82.87;102025.69;5096711;28;20031;-36
2021/10/17 03:09:33;;;;;;;16.05;7.25;;;;;;;7.25;83.29;102009.97;5114159;28;20079;-36
2021/10/17 03:11:58;;;;;;;16.37;7.37;;;;;;;7.29;82.91;102019.38;5114066;28;20363;-35
2021/10/17 03:14:24;;;;;;;18.07;8.17;;;;;;;7.23;84.18;102009.34;5114296;28;20363;-35
2021/10/17 03:16:49;;;;;;;19.67;8.37;;;;;;;7.31;83.16;102028.09;5113798;28;20015;-35
2021/10/17 03:19:15;;;;;;;19.20;8.00;;;;;;;7.39;83.61;102032.56;5114490;28;20435;-36
2021/10/17 03:21:42;;;;;;;17.00;8.30;;;;;;;7.33;82.94;102031.44;5114626;28;20023;-35
2021/10/17 03:24:07;;;;;;;16.58;7.20;;;;;;;7.39;82.46;102024.50;5113613;28;20652;-36
2021/10/17 03:26:32;;;;;;;14.70;7.70;;;;;;;7.37;82.73;102022.00;5113968;28;20016;-35
2021/10/17 03:28:58;;;;;;;15.10;7.40;;;;;;;7.43;83.27;102026.66;5114101;28;20609;-35
2021/10/17 03:31:23;;;;;;;20.43;7.87;;;;;;;7.29;82.97;101999.69;5113895;28;20440;-35
2021/10/17 03:33:49;;;;;;;16.03;7.33;;;;;;;7.34;83.41;102003.50;5113488;28;20027;-36
2021/10/17 03:36:14;;;;;;;18.90;8.17;;;;;;;7.41;83.52;102023.28;5113871;28;20051;-35
2021/10/17 03:38:40;;;;;;;14.23;7.50;;;;;;;7.41;83.85;102022.44;5113413;28;20418;-36
2021/10/17 03:41:05;;;;;;;17.90;7.67;;;;;;;7.36;82.34;102022.16;5114009;28;20338;-35
2021/10/17 03:43:31;;;;;;;19.37;8.00;;;;;;;7.43;81.98;102029.34;5113465;28;20269;-35
2021/10/17 03:45:56;;;;;;;17.83;7.80;;;;;;;7.44;82.54;102028.31;5114464;28;20072;-35
2021/10/17 03:48:22;;;;;;;19.50;8.07;;;;;;;7.46;81.64;102028.97;5113885;28;20028;-35
2021/10/17 03:50:47;;;;;;;22.30;7.87;;;;;;;7.35;81.20;102018.63;5114227;28;20516;-35
2021/10/17 03:53:12;;;;;;;20.13;8.07;;;;;;;7.47;81.46;102025.28;5113737;28;20054;-35
2021/10/17 03:55:38;;;;;;;17.60;7.63;;;;;;;7.44;81.59;102025.63;5113315;28;20019;-36
2021/10/17 03:58:04;;;;;;;22.43;7.93;;;;;;;7.45;82.00;102013.84;5113799;28;20016;-35
2021/10/17 04:00:30;;;;;;;12.57;6.47;;;;;;;7.45;82.52;102005.75;5113763;28;20072;-35
2021/10/17 04:02:55;;;;;;;16.67;8.13;;;;;;;7.48;82.34;102023.41;5114094;28;20023;-36
2021/10/17 04:05:20;;;;;;;19.57;8.80;;;;;;;7.46;81.54;102012.81;5113480;28;20058;-35
2021/10/17 04:07:46;;;;;;;16.10;7.83;;;;;;;7.50;82.09;102021.38;5113841;28;20515;-35
2021/10/17 04:10:11;;;;;;;20.87;8.37;;;;;;;7.49;81.70;102015.16;5113967;28;20023;-35
2021/10/17 04:12:37;;;;;;;14.33;8.07;;;;;;;7.49;82.28;102017.00;5113992;28;20034;-35
2021/10/17 04:15:02;;;;;;;19.55;9.27;;;;;;;7.45;81.76;102018.38;5113384;28;20052;-36
2021/10/17 04:17:28;;;;;;;13.40;7.65;;;;;;;7.44;81.59;102024.78;5113841;28;20024;-35
2021/10/17 04:19:53;;;;;;;14.37;7.90;;;;;;;7.46;83.29;102028.13;5114195;28;20409;-36
2021/10/17 04:22:19;;;;;;;16.07;7.37;;;;;;;7.49;84.08;102017.84;5113621;28;20080;-35
2021/10/17 04:24:45;;;;;;;18.17;7.85;;;;;;;7.53;84.04;102022.88;5116104;28;20102;-35
2021/10/17 04:27:10;;;;;;;18.15;8.27;;;;;;;7.44;82.63;102003.25;5117629;28;20055;-36
2021/10/17 04:29:36;;;;;;;21.27;8.83;;;;;;;7.48;82.62;102018.88;5117341;28;20028;-35
2021/10/17 04:32:06;;;;;;;14.30;8.00;;;;;;;7.50;82.18;102010.59;5133971;27;20069;-36
2021/10/17 04:34:31;;;;;;;13.75;8.00;;;;;;;7.47;81.96;102019.06;5117106;28;20365;-36
2021/10/17 04:36:57;;;;;;;18.05;8.90;;;;;;;7.43;81.89;102021.25;5117064;28;20028;-35
2021/10/17 04:39:23;;;;;;;18.05;8.35;;;;;;;7.43;82.57;102006.97;5117611;28;20077;-35
2021/10/17 04:41:48;;;;;;;18.65;8.63;;;;;;;7.27;82.14;101986.44;5117538;28;20031;-35
2021/10/17 04:44:13;;;;;;;18.53;8.23;;;;;;;7.39;82.49;102011.88;5117730;28;20102;-36
2021/10/17 04:46:39;;;;;;;17.17;7.77;;;;;;;7.41;83.96;102012.53;5117749;28;20023;-35
2021/10/17 04:49:04;;;;;;;21.77;9.93;;;;;;;7.41;81.42;102009.81;5116879;28;20110;-35
2021/10/17 04:51:29;;;;;;;15.93;8.27;;;;;;;7.45;82.35;102008.44;5117123;28;20024;-35
2021/10/17 04:53:55;;;;;;;18.47;8.30;;;;;;;7.46;82.71;102014.66;5116789;28;20475;-35
2021/10/17 04:56:20;;;;;;;18.17;8.17;;;;;;;7.42;82.59;102000.75;5117211;28;20464;-35
2021/10/17 04:58:46;;;;;;;20.97;7.90;;;;;;;7.47;82.67;102001.06;5116932;28;20015;-36
2021/10/17 05:01:11;;;;;;;18.42;8.15;;;;;;;7.58;82.25;102012.41;5116364;28;20020;-36
2021/10/17 05:03:37;;;;;;;14.88;7.82;;;;;;;7.61;82.03;102012.00;5116594;28;20042;-35
2021/10/17 05:06:03;;;;;;;15.48;6.78;;;;;;;7.62;82.76;102008.31;5116563;28;20019;-35
2021/10/17 05:08:29;;;;;;;12.18;7.43;;;;;;;7.61;83.00;102009.31;5116500;28;20031;-35
2021/10/17 05:10:54;;;;;;;20.40;7.82;;;;;;;7.53;81.50;102015.63;5116472;28;20028;-36
2021/10/17 05:13:20;;;;;;;21.57;9.23;;;;;;;7.46;81.40;101993.13;5116597;28;20038;-36
2021/10/17 05:15:45;;;;;;;12.13;6.90;;;;;;;7.55;81.39;102007.38;5116848;28;20043;-35
2021/10/17 05:18:10;;;;;;;12.43;6.97;;;;;;;7.52;81.47;101999.69;5116012;28;20452;-36
2021/10/17 05:20:36;;;;;;;17.40;7.50;;;;;;;7.52;82.70;102005.88;5116187;28;20019;-35
2021/10/17 05:23:01;;;;;;;13.87;7.40;;;;;;;7.52;81.71;102007.75;5116475;28;20039;-36
2021/10/17 05:25:27;;;;;;;18.10;7.90;;;;;;;7.48;81.50;102002.72;5116220;28;20375;-35
2021/10/17 05:27:52;;;;;;;17.63;8.27;;;;;;;7.51;81.84;102006.88;5116480;28;20315;-35
2021/10/17 05:30:17;;;;;;;20.83;7.27;;;;;;;7.59;82.45;102005.97;5116099;28;20133;-35
2021/10/17 05:32:43;;;;;;;14.63;7.97;;;;;;;7.51;83.18;101992.59;5115809;28;20019;-35
2021/10/17 05:35:08;;;;;;;16.23;7.57;;;;;;;7.46;82.20;102001.22;5114680;28;20028;-35
2021/10/17 05:37:34;;;;;;;18.95;7.60;;;;;;;7.54;82.61;102022.69;5115998;28;20012;-36
2021/10/17 05:39:59;;;;;;;14.80;7.40;;;;;;;7.52;82.33;102030.13;5115888;28;20054;-35
2021/10/17 05:42:24;;;;;;;17.47;7.73;;;;;;;7.56;82.75;102020.63;5116186;28;20026;-35
2021/10/17 05:44:50;;;;;;;17.47;7.47;;;;;;;7.44;83.48;102016.72;5116093;28;20024;-35
2021/10/17 05:47:15;;;;;;;19.40;8.20;;;;;;;7.54;84.43;102028.06;5115808;28;20441;-35
2021/10/17 05:49:40;;;;;;;11.90;7.57;;;;;;;7.54;83.17;102028.06;5115773;28;20031;-35
2021/10/17 05:52:06;;;;;;;12.90;6.83;;;;;;;7.52;83.81;102035.50;5097411;28;20369;-35
2021/10/17 05:54:31;;;;;;;15.90;7.23;;;;;;;7.58;83.15;102039.31;5116211;28;20091;-35
2021/10/17 05:56:57;;;;;;;18.02;8.02;;;;;;;7.54;82.60;102043.38;5115863;28;20114;-35
2021/10/17 05:59:22;;;;;;;19.97;8.00;;;;;;;7.56;84.80;102052.09;5115553;28;20432;-35
2021/10/17 06:01:47;;;;;;;13.17;7.07;;;;;;;7.42;84.09;102016.91;5115565;28;20442;-35
2021/10/17 06:04:13;;;;;;;16.90;7.53;;;;;;;7.48;83.41;102039.56;5115130;28;20020;-35
2021/10/17 06:06:44;;;;;;;16.37;7.57;;;;;;;7.58;83.34;102050.91;5116212;28;20025;-35
2021/10/17 06:09:10;;;;;;;13.50;6.50;;;;;;;7.45;84.13;102026.47;5115281;28;20031;-35
2021/10/17 06:11:36;;;;;;;11.95;7.10;;;;;;;7.60;83.15;102059.63;5115868;28;20027;-35
2021/10/17 06:14:02;;;;;;;16.20;7.80;;;;;;;7.56;84.95;102054.78;5115237;28;20029;-35
2021/10/17 06:16:28;;;;;;;14.85;7.60;;;;;;;7.45;84.79;102038.06;5115353;28;20027;-35
2021/10/17 06:18:53;;;;;;;19.07;7.60;;;;;;;7.61;84.42;102049.69;5115450;28;20520;-35
2021/10/17 06:21:18;;;;;;;13.80;6.83;;;;;;;7.59;84.35;102052.56;5115372;28;20475;-35
2021/10/17 06:23:44;;;;;;;16.73;7.63;;;;;;;7.56;84.49;102057.47;5115114;28;20023;-35
2021/10/17 06:26:09;;;;;;;18.77;7.33;;;;;;;7.54;83.75;102067.59;5114833;28;20151;-35
2021/10/17 06:28:34;;;;;;;15.93;7.30;;;;;;;7.57;84.31;102073.47;5114969;28;20034;-36
2021/10/17 06:30:59;;;;;;;16.40;7.90;;;;;;;7.61;85.24;102077.47;5115193;28;20076;-35
2021/10/17 06:33:25;;;;;;;15.90;8.03;;;;;;;7.54;84.95;102065.75;5115137;28;20105;-35
2021/10/17 06:35:50;;;;;;;16.50;8.73;;;;;;;7.59;85.47;102066.03;5114821;28;20024;-36
2021/10/17 06:38:16;;;;;;;14.70;7.90;;;;;;;7.71;85.47;102085.28;5115167;28;20019;-35
2021/10/17 06:40:41;;;;;;;18.27;9.13;;;;;;;7.73;85.75;102076.00;5114779;28;20020;-35
2021/10/17 06:43:06;;;;;;;17.40;8.37;;;;;;;7.74;84.81;102077.69;5115274;28;20046;-35
2021/10/17 06:45:32;;;;;;;15.87;8.50;;;;;;;7.76;85.42;102077.53;5115130;28;20269;-35
2021/10/17 06:47:57;;;;;;;14.73;8.07;;;;;;;7.79;85.86;102085.22;5114529;28;20474;-35
2021/10/17 06:50:22;;;;;;;16.63;8.27;;;;;;;7.78;85.52;102072.78;5114777;28;20055;-35
2021/10/17 06:52:49;;;;;;;16.83;7.83;;;;;;;7.64;86.06;102044.78;5114521;28;20102;-36
2021/10/17 06:55:14;;;;;;;16.95;8.57;;;;;;;7.82;85.61;102063.31;5114687;28;20022;-36
2021/10/17 06:57:40;;;;;;;15.63;7.57;;;;;;;7.75;86.08;102047.03;5114040;28;20049;-36
2021/10/17 07:00:06;;;;;;;17.25;7.88;;;;;;;7.82;85.08;102062.47;5114033;28;20033;-35
2021/10/17 07:02:31;;;;;;;16.98;7.95;;;;;;;7.79;85.39;102063.66;5114639;28;20047;-35
2021/10/17 07:04:57;;;;;;;16.27;7.80;;;;;;;7.80;85.78;102073.41;5114041;28;20059;-35
2021/10/17 07:07:22;;;;;;;18.57;8.23;;;;;;;7.76;85.03;102064.06;5114210;28;20439;-35
2021/10/17 07:09:47;;;;;;;18.07;7.93;;;;;;;7.86;85.48;102071.88;5114125;28;20111;-35
2021/10/17 07:12:12;;;;;;;19.47;8.60;;;;;;;7.87;84.70;102070.84;5114457;28;20106;-35
2021/10/17 07:14:38;;;;;;;14.33;8.70;;;;;;;7.87;85.29;102074.38;5114278;28;20524;-35
2021/10/17 07:17:03;;;;;;;14.07;8.17;;;;;;;7.89;84.87;102069.63;5114235;28;20305;-35
2021/10/17 07:19:28;;;;;;;17.00;8.37;;;;;;;7.96;84.76;102078.66;5114541;28;20462;-35
2021/10/17 07:21:54;;;;;;;15.90;9.67;;;;;;;8.02;84.62;102079.78;5114406;28;20290;-35
2021/10/17 07:24:19;;;;;;;19.60;9.87;;;;;;;8.06;84.81;102091.03;5114490;28;20304;-35
2021/10/17 07:26:44;;;;;;;17.90;8.63;;;;;;;8.12;83.78;102098.38;5114528;28;20019;-35
2021/10/17 07:29:10;;;;;;;18.23;9.27;;;;;;;8.21;84.37;102095.41;5113642;28;20019;-35
2021/10/17 07:31:35;;;;;;;15.13;7.97;;;;;;;8.20;83.90;102088.34;5114262;28;20466;-35
2021/10/17 07:34:00;;;;;;;13.20;7.93;;;;;;;8.33;83.71;102103.03;5113929;28;20051;-35
2021/10/17 07:36:26;;;;;;;15.50;7.97;;;;;;;8.37;82.94;102110.59;5114361;28;20027;-36
2021/10/17 07:38:51;;;;;;;18.93;8.70;;;;;;;8.43;82.98;102100.91;5113501;28;20023;-35
2021/10/17 07:41:17;;;;;;;13.97;7.70;;;;;;;8.56;83.11;102105.66;5114373;28;20030;-35
2021/10/17 07:43:42;;;;;;;16.88;9.20;;;;;;;8.67;83.99;102105.19;5114484;28;20143;-35
2021/10/17 07:46:07;;;;;;;15.00;8.73;;;;;;;8.69;84.19;102109.38;5113498;28;20367;-36
2021/10/17 07:48:36;;;;;;;16.30;8.57;;;;;;;8.75;82.37;102102.41;5114523;28;20054;-35
2021/10/17 07:51:03;;;;;;;22.45;9.65;;;;;;;8.79;81.98;102113.66;5113844;28;20036;-35
2021/10/17 07:53:28;;;;;;;16.40;8.85;;;;;;;8.80;80.70;102105.38;5113917;28;20440;-35
2021/10/17 07:55:54;;;;;;;16.93;8.80;;;;;;;8.83;81.58;102110.38;5114165;28;20030;-35
2021/10/17 07:58:19;;;;;;;14.27;8.23;;;;;;;8.86;80.81;102109.16;5114552;28;20024;-36
2021/10/17 08:00:44;;;;;;;17.30;8.20;;;;;;;8.93;81.47;102110.94;5117872;28;20019;-36
2021/10/17 08:03:10;;;;;;;15.37;8.57;;;;;;;8.88;79.78;102115.19;5118156;28;20449;-36
2021/10/17 08:05:35;;;;;;;19.83;9.60;;;;;;;8.86;80.61;102099.22;5117831;28;20020;-36
2021/10/17 08:08:00;;;;;;;21.50;9.37;;;;;;;8.81;80.31;102095.41;5118299;28;20435;-35
2021/10/17 08:10:26;;;;;;;20.27;9.00;;;;;;;8.97;80.87;102108.66;5117745;28;20088;-35
2021/10/17 08:12:51;;;;;;;17.80;8.63;;;;;;;9.01;82.24;102110.78;5117715;28;20455;-36
2021/10/17 08:15:16;;;;;;;16.00;8.53;;;;;;;8.95;81.13;102097.25;5118407;28;20126;-35
2021/10/17 08:17:42;;;;;;;20.47;9.10;;;;;;;9.05;80.51;102105.88;5117786;28;20459;-36
2021/10/17 08:20:08;;;;;;;16.27;7.73;;;;;;;9.03;80.79;102105.22;5117467;28;20022;-36
2021/10/17 08:22:35;;;;;;;18.85;8.43;;;;;;;9.07;79.92;102100.28;5118063;28;20161;-35
2021/10/17 08:25:01;;;;;;;18.08;7.95;;;;;;;9.08;79.85;102107.34;5117048;28;20055;-36
2021/10/17 08:27:26;;;;;;;16.33;7.95;;;;;;;9.11;80.16;102110.50;5117678;28;20054;-36
2021/10/17 08:29:51;;;;;;;13.17;7.60;;;;;;;9.14;79.71;102106.59;5117345;28;20073;-36
2021/10/17 08:32:18;;;;;;;17.63;9.00;;;;;;;9.10;80.34;102083.72;5117093;28;20027;-36
2021/10/17 08:34:43;;;;;;;;;;;;;;;9.29;80.51;102104.69;5117676;28;20020;-36
2021/10/17 08:37:08;;;;;;;15.77;8.67;;;;;;;9.13;78.58;102091.44;5117734;28;19966;-36
2021/10/17 08:39:34;;;;;;;14.90;8.20;;;;;;;9.27;78.76;102109.41;5117663;28;20272;-36
2021/10/17 08:41:59;;;;;;;18.63;7.87;;;;;;;9.27;78.75;102106.72;5117714;28;20019;-35
2021/10/17 08:44:24;;;;;;;16.87;7.73;;;;;;;9.29;78.69;102110.91;5098661;28;20019;-35
2021/10/17 08:46:51;;;;;;;15.80;8.40;;;;;;;9.35;78.21;102112.00;5117027;28;20023;-36
2021/10/17 08:49:20;;;;;;;16.92;7.72;;;;;;;9.38;78.01;102110.78;5116931;28;20123;-36
2021/10/17 08:51:45;;;;;;;19.52;7.95;;;;;;;9.45;78.74;102112.50;5117800;28;20030;-36
2021/10/17 08:54:11;;;;;;;18.70;7.53;;;;;;;9.57;77.99;102109.31;5117136;28;20015;-36
2021/10/17 08:56:36;;;;;;;17.70;7.37;;;;;;;9.61;77.50;102103.31;5116436;28;20032;-36
2021/10/17 08:59:01;;;;;;;19.23;7.83;;;;;;;9.65;77.24;102107.31;5116468;28;20024;-36
2021/10/17 09:01:35;;;;;;;20.93;7.97;;;;;;;9.76;77.11;102108.63;5116823;28;20038;-36
2021/10/17 09:04:03;;;;;;;16.00;7.40;;;;;;;9.83;77.50;102106.84;5117136;28;20043;-35
2021/10/17 09:06:35;;;;;;;13.35;7.25;;;;;;;9.90;76.37;102106.88;5117379;28;20501;-36
2021/10/17 09:09:08;;;;;;;13.98;6.63;;;;;;;10.01;77.66;102104.50;5117307;28;20471;-36
2021/10/17 09:11:43;;;;;;;13.73;7.22;;;;;;;10.07;76.92;102092.91;5117374;28;20305;-35
2021/10/17 09:14:22;;;;;;;16.48;7.22;;;;;;;10.13;75.21;102098.53;5116978;28;20029;-35
2021/10/17 09:16:50;;;;;;;16.42;7.10;;;;;;;10.09;74.65;102097.25;5116613;28;20063;-36
2021/10/17 09:19:20;;;;;;;17.48;6.55;;;;;;;10.02;74.39;102087.25;5116403;28;20019;-35
2021/10/17 09:21:54;;;;;;;13.23;6.75;;;;;;;10.07;74.60;102078.56;5116659;28;20467;-36
2021/10/17 09:24:25;;;;;;;14.48;7.20;;;;;;;10.15;75.16;102094.63;5116260;28;20043;-35
2021/10/17 09:27:10;;;;;;;15.45;6.57;;;;;;;10.24;75.72;102106.97;5116567;28;20527;-36
2021/10/17 09:29:37;;;;;;;18.20;7.28;;;;;;;10.27;75.21;102093.06;5116098;28;20359;-36
2021/10/17 09:32:20;;;;;;;15.15;6.32;;;;;;;10.30;76.55;102091.84;5116124;28;20051;-36
2021/10/17 09:34:57;;;;;;;16.25;6.97;;;;;;;10.09;74.15;102057.56;5116132;28;20057;-36
2021/10/17 09:37:30;;;;;;;13.07;6.63;;;;;;;10.37;74.86;102097.28;5116585;28;20035;-35
2021/10/17 09:40:17;;;;;;;16.90;7.30;;;;;;;10.40;74.30;102100.44;5115755;28;20448;-36
2021/10/17 09:43:33;;;;;;;17.38;6.53;;;;;;;10.43;73.91;102097.31;5116293;28;20032;-36
2021/10/17 09:46:09;;;;;;;22.90;7.15;;;;;;;10.42;73.53;102101.03;5053290;28;20139;-36
2021/10/17 09:48:34;;;;;;;16.55;6.53;;;;;;;10.45;73.28;102094.41;5053429;28;20037;-36
2021/10/17 09:51:01;;;;;;;15.18;6.50;;;;;;;10.45;73.09;102092.53;5052796;28;20180;-36
2021/10/17 09:53:39;;;;;;;14.88;7.00;;;;;;;10.53;73.39;102096.94;5052834;28;20110;-36
2021/10/17 09:56:06;;;;;;;14.65;7.00;;;;;;;10.57;73.03;102093.63;5053014;28;20488;-36
2021/10/17 09:58:32;;;;;;;14.55;7.00;;;;;;;10.63;74.69;102097.41;5053549;28;20063;-36
2021/10/17 10:00:58;;;;;;;13.13;6.82;;;;;;;10.68;73.12;102102.22;5053341;28;20029;-36
2021/10/17 10:03:27;;;;;;;17.05;7.07;;;;;;;10.77;74.15;102098.31;5053174;28;20112;-36
2021/10/17 10:05:57;;;;;;;10.73;6.70;;;;;;;10.82;73.03;102098.53;5052540;28;20027;-35
2021/10/17 10:08:23;;;;;;;17.83;8.23;;;;;;;10.86;72.98;102091.69;5052920;28;20106;-36
2021/10/17 10:10:50;;;;;;;15.07;8.25;;;;;;;10.91;71.79;102100.03;5052459;28;20036;-36
2021/10/17 10:13:16;;;;;;;12.45;6.18;;;;;;;10.90;71.81;102089.41;5052498;28;20033;-35
2021/10/17 10:15:43;;;;;;;11.20;6.78;;;;;;;10.95;72.18;102095.06;5052406;28;20081;-36
2021/10/17 10:18:11;;;;;;;12.50;6.65;;;;;;;11.06;71.01;102106.13;5052957;28;20025;-36
2021/10/17 10:20:37;;;;;;;13.90;6.32;;;;;;;11.12;70.52;102106.34;5060713;28;20040;-36
2021/10/17 10:23:06;;;;;;;17.67;6.75;;;;;;;11.13;71.50;102099.91;5114999;28;20065;-35
2021/10/17 10:25:32;;;;;;;11.57;6.28;;;;;;;11.21;71.40;102105.13;5115411;28;20157;-36
2021/10/17 10:27:58;;;;;;;13.18;7.47;;;;;;;11.23;70.96;102103.06;5115620;28;20467;-36
2021/10/17 10:30:24;;;;;;;;;;;;;;;11.32;71.68;102116.19;5115494;28;20034;-36
2021/10/17 10:33:05;;;;;;;11.00;6.20;;;;;;;11.30;71.41;102114.72;5115543;28;19903;-36
2021/10/17 10:35:30;;;;;;;17.65;7.45;;;;;;;11.32;71.79;102116.19;5115268;28;20019;-35
2021/10/17 10:37:56;;;;;;;15.30;7.20;;;;;;;11.37;71.87;102112.00;5114892;28;20417;-36
2021/10/17 10:40:21;;;;;;;12.17;6.67;;;;;;;11.41;71.49;102111.41;5114943;28;20270;-36
2021/10/17 10:42:49;;;;;;;15.53;7.43;;;;;;;11.46;70.55;102103.50;5115679;28;20132;-36
2021/10/17 10:45:34;;;;;;;27.50;8.18;;;;;;;11.56;72.31;102098.50;5114515;28;20048;-36
2021/10/17 10:48:05;;;;;;;15.52;7.90;;;;;;;11.62;70.72;102096.88;5115178;28;20023;-36
2021/10/17 10:50:37;;;;;;;17.13;6.53;;;;;;;11.72;69.86;102101.88;5115270;28;20347;-36
2021/10/17 10:53:03;;;;;;;16.52;7.63;;;;;;;11.70;69.68;102084.97;5115183;28;20017;-36
2021/10/17 10:55:47;;;;;;;12.55;7.13;;;;;;;11.87;69.36;102088.97;5114351;28;20399;-36
2021/10/17 10:58:22;;;;;;;14.48;6.78;;;;;;;11.95;68.83;102096.03;5115163;28;20120;-36
2021/10/17 11:00:48;;;;;;;13.68;6.70;;;;;;;11.89;68.92;102076.03;5114389;28;20019;-36
2021/10/17 11:03:15;;;;;;;14.45;6.25;;;;;;;11.93;67.95;102082.72;5115079;28;20019;-36
2021/10/17 11:06:03;;;;;;;12.18;7.07;;;;;;;12.08;69.24;102102.28;5114613;28;20030;-36
2021/10/17 11:08:29;;;;;;;14.07;6.35;;;;;;;12.09;69.52;102098.53;5114386;28;20055;-35
2021/10/17 11:10:54;;;;;;;12.67;6.23;;;;;;;12.14;68.77;102089.75;5130616;27;20032;-36
2021/10/17 11:13:33;;;;;;;15.47;6.47;;;;;;;12.17;68.99;102096.66;5114758;28;20090;-36
2021/10/17 11:16:00;;;;;;;10.65;5.65;;;;;;;12.14;68.14;102087.06;5114017;28;20036;-36
2021/10/17 11:18:56;;;;;;;9.45;5.13;;;;;;;12.21;68.67;102089.78;5114488;28;20024;-36
2021/10/17 11:21:28;;;;;;;10.65;5.57;;;;;;;12.19;66.58;102094.56;5031811;28;20030;-36
2021/10/17 11:23:53;;;;;;;10.93;5.47;;;;;;;12.21;68.20;102090.59;5031258;28;20115;-36